sensor_id;sensor_type;location;lat;lon;timestamp;pressure;altitude;pressure_sealevel;temperature;humidity
76627;BME280;65519;53.230;10.390;2023-02-04T00:01:37;102373.72;;;3.41;79.28
76627;BME280;65519;53.230;10.390;2023-02-04T00:04:02;102382.34;;;3.36;78.71
76627;BME280;65519;53.230;10.390;2023-02-04T00:06:28;102388.16;;;3.25;79.15
76627;BME280;65519;53.230;10.390;2023-02-04T00:08:53;102398.91;;;3.33;79.79
76627;BME280;65519;53.230;10.390;2023-02-04T00:11:19;102402.97;;;3.29;78.93
76627;BME280;65519;53.230;10.390;2023-02-04T00:13:45;102400.59;;;3.34;78.02
76627;BME280;65519;53.230;10.390;2023-02-04T00:16:10;102415.53;;;3.37;78.73
76627;BME280;65519;53.230;10.390;2023-02-04T00:18:35;102419.50;;;3.49;79.68
76627;BME280;65519;53.230;10.390;2023-02-04T00:21:01;102424.03;;;3.48;78.40
76627;BME280;65519;53.230;10.390;2023-02-04T00:23:26;102435.81;;;3.55;78.87
76627;BME280;65519;53.230;10.390;2023-02-04T00:25:51;102432.97;;;3.49;78.98
76627;BME280;65519;53.230;10.390;2023-02-04T00:28:17;102436.25;;;3.59;78.53
76627;BME280;65519;53.230;10.390;2023-02-04T00:30:43;102448.28;;;3.56;78.68
76627;BME280;65519;53.230;10.390;2023-02-04T00:33:08;102455.31;;;3.57;78.04
76627;BME280;65519;53.230;10.390;2023-02-04T00:35:34;102461.44;;;3.51;78.63
76627;BME280;65519;53.230;10.390;2023-02-04T00:38:01;102476.19;;;3.63;79.05
76627;BME280;65519;53.230;10.390;2023-02-04T00:40:27;102480.06;;;3.61;78.52
76627;BME280;65519;53.230;10.390;2023-02-04T00:42:52;102480.81;;;3.55;78.11
76627;BME280;65519;53.230;10.390;2023-02-04T00:45:18;102486.31;;;3.61;77.91
76627;BME280;65519;53.230;10.390;2023-02-04T00:47:43;102484.19;;;3.49;78.45
76627;BME280;65519;53.230;10.390;2023-02-04T00:50:09;102500.53;;;3.47;79.16
76627;BME280;65519;53.230;10.390;2023-02-04T00:52:34;102495.13;;;3.55;78.80
76627;BME280;65519;53.230;10.390;2023-02-04T00:54:59;102503.56;;;3.52;78.27
76627;BME280;65519;53.230;10.390;2023-02-04T00:57:25;102504.97;;;3.40;79.03
76627;BME280;65519;53.230;10.390;2023-02-04T00:59:50;102529.13;;;3.25;78.85
76627;BME280;65519;53.230;10.390;2023-02-04T01:02:15;102523.34;;;3.37;78.89
76627;BME280;65519;53.230;10.390;2023-02-04T01:04:41;102530.56;;;3.44;79.25
76627;BME280;65519;53.230;10.390;2023-02-04T01:07:06;102535.13;;;3.44;78.80
76627;BME280;65519;53.230;10.390;2023-02-04T01:09:32;102546.69;;;3.52;80.35
76627;BME280;65519;53.230;10.390;2023-02-04T01:11:58;102552.03;;;3.60;80.15
76627;BME280;65519;53.230;10.390;2023-02-04T01:14:23;102548.56;;;3.52;78.42
76627;BME280;65519;53.230;10.390;2023-02-04T01:16:49;102559.91;;;3.70;79.11
76627;BME280;65519;53.230;10.390;2023-02-04T01:19:14;102562.13;;;3.66;78.85
76627;BME280;65519;53.230;10.390;2023-02-04T01:21:39;102575.91;;;3.72;79.09
76627;BME280;65519;53.230;10.390;2023-02-04T01:24:05;102584.56;;;3.67;79.19
76627;BME280;65519;53.230;10.390;2023-02-04T01:26:30;102583.34;;;3.70;79.50
76627;BME280;65519;53.230;10.390;2023-02-04T01:28:55;102596.78;;;3.78;79.25
76627;BME280;65519;53.230;10.390;2023-02-04T01:31:21;102597.84;;;3.68;79.31
76627;BME280;65519;53.230;10.390;2023-02-04T01:33:46;102604.97;;;3.61;80.12
76627;BME280;65519;53.230;10.390;2023-02-04T01:36:12;102610.69;;;3.58;79.69
76627;BME280;65519;53.230;10.390;2023-02-04T01:38:38;102618.63;;;3.60;79.45
76627;BME280;65519;53.230;10.390;2023-02-04T01:41:04;102622.31;;;3.59;80.18
76627;BME280;65519;53.230;10.390;2023-02-04T01:43:30;102617.31;;;3.48;79.22
76627;BME280;65519;53.230;10.390;2023-02-04T01:45:56;102625.25;;;3.49;80.10
76627;BME280;65519;53.230;10.390;2023-02-04T01:48:22;102636.69;;;3.51;80.30
76627;BME280;65519;53.230;10.390;2023-02-04T01:50:48;102650.81;;;3.61;80.42
76627;BME280;65519;53.230;10.390;2023-02-04T01:53:19;102655.13;;;3.71;80.20
76627;BME280;65519;53.230;10.390;2023-02-04T01:55:45;102654.06;;;3.49;79.74
76627;BME280;65519;53.230;10.390;2023-02-04T01:58:11;102653.22;;;3.48;80.03
76627;BME280;65519;53.230;10.390;2023-02-04T02:00:37;102668.66;;;3.62;80.43
76627;BME280;65519;53.230;10.390;2023-02-04T02:03:04;102670.03;;;3.58;80.31
76627;BME280;65519;53.230;10.390;2023-02-04T02:05:43;102675.75;;;3.63;80.34
76627;BME280;65519;53.230;10.390;2023-02-04T02:08:10;102667.31;;;3.66;79.36
76627;BME280;65519;53.230;10.390;2023-02-04T02:10:39;102675.75;;;3.63;79.71
76627;BME280;65519;53.230;10.390;2023-02-04T02:13:06;102675.78;;;3.47;80.20
76627;BME280;65519;53.230;10.390;2023-02-04T02:15:33;102667.72;;;3.47;80.67
76627;BME280;65519;53.230;10.390;2023-02-04T02:17:59;102686.41;;;3.57;80.93
76627;BME280;65519;53.230;10.390;2023-02-04T02:20:25;102691.25;;;3.61;81.12
76627;BME280;65519;53.230;10.390;2023-02-04T02:26:12;102698.47;;;3.69;80.63
76627;BME280;65519;53.230;10.390;2023-02-04T02:28:37;102696.13;;;3.66;80.94
76627;BME280;65519;53.230;10.390;2023-02-04T02:31:03;102700.75;;;3.41;80.84
76627;BME280;65519;53.230;10.390;2023-02-04T02:33:28;102708.84;;;3.41;81.68
76627;BME280;65519;53.230;10.390;2023-02-04T02:35:54;102709.69;;;3.42;80.65
76627;BME280;65519;53.230;10.390;2023-02-04T02:38:19;102712.25;;;3.27;81.21
76627;BME280;65519;53.230;10.390;2023-02-04T02:40:46;102713.28;;;3.18;81.04
76627;BME280;65519;53.230;10.390;2023-02-04T02:43:17;102717.66;;;3.19;81.16
76627;BME280;65519;53.230;10.390;2023-02-04T02:45:44;102737.19;;;3.21;81.75
76627;BME280;65519;53.230;10.390;2023-02-04T02:48:10;102732.66;;;3.21;81.03
76627;BME280;65519;53.230;10.390;2023-02-04T02:50:36;102740.06;;;2.87;82.06
76627;BME280;65519;53.230;10.390;2023-02-04T02:53:02;102751.53;;;2.97;82.49
76627;BME280;65519;53.230;10.390;2023-02-04T02:55:28;102754.56;;;3.10;81.98
76627;BME280;65519;53.230;10.390;2023-02-04T02:57:55;102763.31;;;3.12;81.52
76627;BME280;65519;53.230;10.390;2023-02-04T03:00:25;102777.78;;;3.03;81.88
76627;BME280;65519;53.230;10.390;2023-02-04T03:02:59;102762.47;;;3.04;82.19
76627;BME280;65519;53.230;10.390;2023-02-04T03:05:28;102773.06;;;3.05;81.70
76627;BME280;65519;53.230;10.390;2023-02-04T03:07:54;102786.38;;;3.15;81.66
76627;BME280;65519;53.230;10.390;2023-02-04T03:10:20;102793.13;;;3.19;81.26
76627;BME280;65519;53.230;10.390;2023-02-04T03:12:46;102796.81;;;3.26;80.83
76627;BME280;65519;53.230;10.390;2023-02-04T03:15:13;102795.97;;;3.34;80.25
76627;BME280;65519;53.230;10.390;2023-02-04T03:17:39;102813.34;;;3.31;80.03
76627;BME280;65519;53.230;10.390;2023-02-04T03:20:05;102815.16;;;3.14;80.74
76627;BME280;65519;53.230;10.390;2023-02-04T03:22:32;102810.31;;;3.02;80.71
76627;BME280;65519;53.230;10.390;2023-02-04T03:24:57;102826.94;;;2.81;81.58
76627;BME280;65519;53.230;10.390;2023-02-04T03:27:23;102826.44;;;2.93;81.68
76627;BME280;65519;53.230;10.390;2023-02-04T03:29:49;102828.28;;;2.93;80.81
76627;BME280;65519;53.230;10.390;2023-02-04T03:32:14;102845.81;;;2.81;81.32
76627;BME280;65519;53.230;10.390;2023-02-04T03:34:40;102845.44;;;2.76;81.68
76627;BME280;65519;53.230;10.390;2023-02-04T03:37:07;102844.44;;;2.77;81.27
76627;BME280;65519;53.230;10.390;2023-02-04T03:39:32;102857.91;;;2.69;81.33
76627;BME280;65519;53.230;10.390;2023-02-04T03:41:58;102859.09;;;2.82;81.74
76627;BME280;65519;53.230;10.390;2023-02-04T03:44:23;102870.91;;;2.89;81.86
76627;BME280;65519;53.230;10.390;2023-02-04T03:46:51;102886.38;;;2.79;81.49
76627;BME280;65519;53.230;10.390;2023-02-04T03:49:22;102888.06;;;2.88;81.83
76627;BME280;65519;53.230;10.390;2023-02-04T03:51:48;102882.00;;;2.78;82.30
76627;BME280;65519;53.230;10.390;2023-02-04T03:54:14;102878.47;;;2.86;82.01
76627;BME280;65519;53.230;10.390;2023-02-04T03:56:39;102884.00;;;2.84;81.55
76627;BME280;65519;53.230;10.390;2023-02-04T03:59:05;102909.31;;;3.00;81.45
76627;BME280;65519;53.230;10.390;2023-02-04T04:01:30;102916.00;;;2.79;80.31
76627;BME280;65519;53.230;10.390;2023-02-04T04:03:55;102936.56;;;2.97;81.86
76627;BME280;65519;53.230;10.390;2023-02-04T04:06:21;102932.00;;;2.89;80.92
76627;BME280;65519;53.230;10.390;2023-02-04T04:08:46;102939.81;;;3.08;81.65
76627;BME280;65519;53.230;10.390;2023-02-04T04:11:12;102929.88;;;3.09;80.99
76627;BME280;65519;53.230;10.390;2023-02-04T04:13:37;102942.97;;;3.04;80.69
76627;BME280;65519;53.230;10.390;2023-02-04T04:16:03;102951.75;;;3.14;81.06
76627;BME280;65519;53.230;10.390;2023-02-04T04:18:29;102948.06;;;3.07;81.14
76627;BME280;65519;53.230;10.390;2023-02-04T04:20:55;102951.97;;;3.12;80.48
76627;BME280;65519;53.230;10.390;2023-02-04T04:23:20;102963.38;;;3.14;80.64
76627;BME280;65519;53.230;10.390;2023-02-04T04:25:45;102961.88;;;3.12;80.46
76627;BME280;65519;53.230;10.390;2023-02-04T04:28:11;102963.56;;;3.13;80.86
76627;BME280;65519;53.230;10.390;2023-02-04T04:30:36;102959.69;;;3.15;81.66
76627;BME280;65519;53.230;10.390;2023-02-04T04:33:01;102970.59;;;2.98;80.29
76627;BME280;65519;53.230;10.390;2023-02-04T04:35:27;102982.75;;;3.02;81.20
76627;BME280;65519;53.230;10.390;2023-02-04T04:37:52;102985.59;;;3.00;81.00
76627;BME280;65519;53.230;10.390;2023-02-04T04:40:17;102986.75;;;2.98;81.21
76627;BME280;65519;53.230;10.390;2023-02-04T04:42:43;102983.09;;;3.15;80.77
76627;BME280;65519;53.230;10.390;2023-02-04T04:45:09;102988.47;;;3.15;80.56
76627;BME280;65519;53.230;10.390;2023-02-04T04:47:35;102989.00;;;3.18;80.10
76627;BME280;65519;53.230;10.390;2023-02-04T04:50:00;102988.47;;;3.07;80.51
76627;BME280;65519;53.230;10.390;2023-02-04T04:52:26;102992.03;;;3.15;80.37
76627;BME280;65519;53.230;10.390;2023-02-04T04:54:51;102991.72;;;3.18;79.62
76627;BME280;65519;53.230;10.390;2023-02-04T04:57:17;103011.44;;;3.27;79.83
76627;BME280;65519;53.230;10.390;2023-02-04T04:59:42;103008.41;;;3.30;79.14
76627;BME280;65519;53.230;10.390;2023-02-04T05:02:07;103005.78;;;2.96;79.60
76627;BME280;65519;53.230;10.390;2023-02-04T05:04:33;103005.47;;;2.99;79.37
76627;BME280;65519;53.230;10.390;2023-02-04T05:06:58;103003.81;;;3.14;79.02
76627;BME280;65519;53.230;10.390;2023-02-04T05:09:23;103010.91;;;3.15;79.03
76627;BME280;65519;53.230;10.390;2023-02-04T05:11:49;103001.78;;;3.08;78.84
76627;BME280;65519;53.230;10.390;2023-02-04T05:14:14;103002.97;;;3.14;78.10
76627;BME280;65519;53.230;10.390;2023-02-04T05:16:39;103018.63;;;3.10;78.91
76627;BME280;65519;53.230;10.390;2023-02-04T05:19:05;103019.19;;;3.22;79.02
76627;BME280;65519;53.230;10.390;2023-02-04T05:21:30;103016.13;;;3.25;78.82
76627;BME280;65519;53.230;10.390;2023-02-04T05:23:55;103031.50;;;3.24;78.22
76627;BME280;65519;53.230;10.390;2023-02-04T05:26:21;103035.97;;;3.08;77.99
76627;BME280;65519;53.230;10.390;2023-02-04T05:28:46;103037.13;;;3.05;78.65
76627;BME280;65519;53.230;10.390;2023-02-04T05:31:11;103050.44;;;3.07;79.40
76627;BME280;65519;53.230;10.390;2023-02-04T05:33:37;103049.47;;;3.16;78.67
76627;BME280;65519;53.230;10.390;2023-02-04T05:36:02;103057.91;;;3.13;78.70
76627;BME280;65519;53.230;10.390;2023-02-04T05:38:27;103067.31;;;3.17;77.79
76627;BME280;65519;53.230;10.390;2023-02-04T05:40:53;103080.84;;;3.25;77.35
76627;BME280;65519;53.230;10.390;2023-02-04T05:43:18;103083.59;;;3.33;77.93
76627;BME280;65519;53.230;10.390;2023-02-04T05:45:44;103091.72;;;3.07;77.25
76627;BME280;65519;53.230;10.390;2023-02-04T05:48:09;103087.16;;;3.08;79.22
76627;BME280;65519;53.230;10.390;2023-02-04T05:50:34;103093.56;;;3.07;78.49
76627;BME280;65519;53.230;10.390;2023-02-04T05:53:00;103096.25;;;3.07;78.20
76627;BME280;65519;53.230;10.390;2023-02-04T05:55:25;103095.97;;;3.18;78.43
76627;BME280;65519;53.230;10.390;2023-02-04T05:57:50;103097.13;;;3.15;78.41
76627;BME280;65519;53.230;10.390;2023-02-04T06:00:16;103091.56;;;3.09;77.74
76627;BME280;65519;53.230;10.390;2023-02-04T06:02:41;103093.38;;;3.00;77.93
76627;BME280;65519;53.230;10.390;2023-02-04T06:05:07;103096.25;;;3.07;77.81
76627;BME280;65519;53.230;10.390;2023-02-04T06:07:32;103109.09;;;3.13;77.86
76627;BME280;65519;53.230;10.390;2023-02-04T06:09:57;103110.56;;;3.07;77.35
76627;BME280;65519;53.230;10.390;2023-02-04T06:12:23;103116.81;;;3.08;77.98
76627;BME280;65519;53.230;10.390;2023-02-04T06:14:48;103117.81;;;3.07;77.32
76627;BME280;65519;53.230;10.390;2023-02-04T06:17:13;103129.25;;;3.01;77.98
76627;BME280;65519;53.230;10.390;2023-02-04T06:19:39;103118.09;;;2.96;78.05
76627;BME280;65519;53.230;10.390;2023-02-04T06:22:04;103135.31;;;3.03;78.13
76627;BME280;65519;53.230;10.390;2023-02-04T06:24:29;103122.53;;;2.79;78.00
76627;BME280;65519;53.230;10.390;2023-02-04T06:26:55;103137.22;;;2.84;78.25
76627;BME280;65519;53.230;10.390;2023-02-04T06:29:20;103148.28;;;2.81;77.83
76627;BME280;65519;53.230;10.390;2023-02-04T06:31:45;103141.97;;;2.90;78.72
76627;BME280;65519;53.230;10.390;2023-02-04T06:34:12;103142.72;;;2.75;77.93
76627;BME280;65519;53.230;10.390;2023-02-04T06:36:38;103162.41;;;2.75;77.84
76627;BME280;65519;53.230;10.390;2023-02-04T06:39:03;103171.88;;;2.79;78.24
76627;BME280;65519;53.230;10.390;2023-02-04T06:41:28;103160.75;;;2.56;78.25
76627;BME280;65519;53.230;10.390;2023-02-04T06:43:54;103182.50;;;2.63;78.77
76627;BME280;65519;53.230;10.390;2023-02-04T06:46:19;103184.84;;;2.58;78.30
76627;BME280;65519;53.230;10.390;2023-02-04T06:48:45;103187.44;;;2.50;78.50
76627;BME280;65519;53.230;10.390;2023-02-04T06:51:10;103197.13;;;2.43;78.74
76627;BME280;65519;53.230;10.390;2023-02-04T06:53:35;103207.59;;;2.28;79.04
76627;BME280;65519;53.230;10.390;2023-02-04T06:56:01;103208.53;;;2.37;80.02
76627;BME280;65519;53.230;10.390;2023-02-04T06:58:26;103214.00;;;2.27;79.20
76627;BME280;65519;53.230;10.390;2023-02-04T07:00:51;103209.81;;;2.33;79.21
76627;BME280;65519;53.230;10.390;2023-02-04T07:03:17;103209.59;;;2.26;79.52
76627;BME280;65519;53.230;10.390;2023-02-04T07:05:42;103212.88;;;2.20;79.38
76627;BME280;65519;53.230;10.390;2023-02-04T07:08:07;103217.28;;;2.21;79.58
76627;BME280;65519;53.230;10.390;2023-02-04T07:10:33;103229.41;;;2.07;79.97
76627;BME280;65519;53.230;10.390;2023-02-04T07:12:58;103228.16;;;2.02;80.14
76627;BME280;65519;53.230;10.390;2023-02-04T07:15:23;103232.47;;;1.95;80.17
76627;BME280;65519;53.230;10.390;2023-02-04T07:17:49;103236.81;;;1.96;80.41
76627;BME280;65519;53.230;10.390;2023-02-04T07:20:14;103239.69;;;1.94;79.82
76627;BME280;65519;53.230;10.390;2023-02-04T07:22:39;103254.09;;;2.03;80.25
76627;BME280;65519;53.230;10.390;2023-02-04T07:25:06;103249.53;;;2.03;80.17
76627;BME280;65519;53.230;10.390;2023-02-04T07:27:32;103259.13;;;2.06;79.89
76627;BME280;65519;53.230;10.390;2023-02-04T07:29:57;103258.34;;;2.23;79.83
76627;BME280;65519;53.230;10.390;2023-02-04T07:32:22;103257.41;;;2.14;80.35
76627;BME280;65519;53.230;10.390;2023-02-04T07:34:48;103262.84;;;2.05;80.22
76627;BME280;65519;53.230;10.390;2023-02-04T07:37:13;103269.91;;;2.06;80.05
76627;BME280;65519;53.230;10.390;2023-02-04T07:39:39;103271.91;;;2.04;79.95
76627;BME280;65519;53.230;10.390;2023-02-04T07:42:04;103272.06;;;2.02;80.38
76627;BME280;65519;53.230;10.390;2023-02-04T07:44:30;103277.16;;;2.05;80.22
76627;BME280;65519;53.230;10.390;2023-02-04T07:46:55;103279.47;;;2.18;79.69
76627;BME280;65519;53.230;10.390;2023-02-04T07:49:21;103281.78;;;2.13;79.75
76627;BME280;65519;53.230;10.390;2023-02-04T07:51:46;103292.28;;;2.06;79.95
76627;BME280;65519;53.230;10.390;2023-02-04T07:54:12;103288.28;;;2.10;80.06
76627;BME280;65519;53.230;10.390;2023-02-04T07:56:37;103297.06;;;2.12;79.96
76627;BME280;65519;53.230;10.390;2023-02-04T07:59:02;103307.34;;;2.27;79.93
76627;BME280;65519;53.230;10.390;2023-02-04T08:01:28;103303.53;;;2.19;80.26
76627;BME280;65519;53.230;10.390;2023-02-04T08:03:53;103310.03;;;2.27;79.50
76627;BME280;65519;53.230;10.390;2023-02-04T08:06:18;103316.56;;;2.24;80.05
76627;BME280;65519;53.230;10.390;2023-02-04T08:08:44;103314.84;;;2.23;79.73
76627;BME280;65519;53.230;10.390;2023-02-04T08:11:09;103307.88;;;2.30;80.23
76627;BME280;65519;53.230;10.390;2023-02-04T08:13:35;103303.41;;;2.39;79.97
76627;BME280;65519;53.230;10.390;2023-02-04T08:16:00;103315.59;;;2.43;79.01
76627;BME280;65519;53.230;10.390;2023-02-04T08:18:25;103318.06;;;2.54;79.38
76627;BME280;65519;53.230;10.390;2023-02-04T08:20:51;103315.94;;;2.58;78.86
76627;BME280;65519;53.230;10.390;2023-02-04T08:23:16;103322.59;;;2.71;79.65
76627;BME280;65519;53.230;10.390;2023-02-04T08:25:41;103321.72;;;2.80;79.19
76627;BME280;65519;53.230;10.390;2023-02-04T08:28:07;103317.53;;;2.86;78.89
76627;BME280;65519;53.230;10.390;2023-02-04T08:30:32;103325.56;;;2.78;79.34
76627;BME280;65519;53.230;10.390;2023-02-04T08:32:58;103326.94;;;2.64;79.13
76627;BME280;65519;53.230;10.390;2023-02-04T08:35:23;103318.06;;;2.54;79.31
76627;BME280;65519;53.230;10.390;2023-02-04T08:37:48;103321.69;;;2.63;79.22
76627;BME280;65519;53.230;10.390;2023-02-04T08:40:14;103330.16;;;2.68;79.06
76627;BME280;65519;53.230;10.390;2023-02-04T08:42:39;103336.84;;;2.81;79.29
76627;BME280;65519;53.230;10.390;2023-02-04T08:45:05;103332.41;;;2.90;79.06
76627;BME280;65519;53.230;10.390;2023-02-04T08:47:30;103328.25;;;2.96;77.85
76627;BME280;65519;53.230;10.390;2023-02-04T08:49:57;103330.09;;;3.13;77.99
76627;BME280;65519;53.230;10.390;2023-02-04T08:52:22;103331.53;;;3.25;77.06
76627;BME280;65519;53.230;10.390;2023-02-04T08:54:47;103328.66;;;3.44;77.13
76627;BME280;65519;53.230;10.390;2023-02-04T08:57:13;103350.19;;;3.62;76.86
76627;BME280;65519;53.230;10.390;2023-02-04T08:59:39;103341.97;;;3.72;76.76
76627;BME280;65519;53.230;10.390;2023-02-04T09:02:08;103337.63;;;3.79;75.89
76627;BME280;65519;53.230;10.390;2023-02-04T09:04:34;103342.66;;;3.74;75.75
76627;BME280;65519;53.230;10.390;2023-02-04T09:06:59;103345.56;;;3.80;76.29
76627;BME280;65519;53.230;10.390;2023-02-04T09:09:25;103358.28;;;3.88;75.90
76627;BME280;65519;53.230;10.390;2023-02-04T09:11:50;103356.19;;;3.82;75.29
76627;BME280;65519;53.230;10.390;2023-02-04T09:14:15;103357.28;;;3.89;76.18
76627;BME280;65519;53.230;10.390;2023-02-04T09:16:41;103351.91;;;3.97;75.49
76627;BME280;65519;53.230;10.390;2023-02-04T09:19:06;103365.75;;;4.02;75.26
76627;BME280;65519;53.230;10.390;2023-02-04T09:21:35;103372.22;;;4.09;74.55
76627;BME280;65519;53.230;10.390;2023-02-04T09:24:00;103372.59;;;4.22;75.24
76627;BME280;65519;53.230;10.390;2023-02-04T09:26:25;103381.13;;;4.35;74.59
76627;BME280;65519;53.230;10.390;2023-02-04T09:28:51;103383.19;;;4.42;73.63
76627;BME280;65519;53.230;10.390;2023-02-04T09:31:16;103391.63;;;4.47;73.03
76627;BME280;65519;53.230;10.390;2023-02-04T09:33:41;103380.50;;;4.50;73.80
76627;BME280;65519;53.230;10.390;2023-02-04T09:36:07;103393.19;;;4.57;72.51
76627;BME280;65519;53.230;10.390;2023-02-04T09:38:33;103384.22;;;4.57;73.47
76627;BME280;65519;53.230;10.390;2023-02-04T09:41:03;103395.44;;;4.78;73.58
76627;BME280;65519;53.230;10.390;2023-02-04T09:43:35;103397.13;;;4.79;71.49
76627;BME280;65519;53.230;10.390;2023-02-04T09:46:02;103400.03;;;4.86;71.57
76627;BME280;65519;53.230;10.390;2023-02-04T09:48:28;103390.41;;;4.91;72.18
76627;BME280;65519;53.230;10.390;2023-02-04T09:51:03;103397.53;;;5.00;71.00
76627;BME280;65519;53.230;10.390;2023-02-04T09:53:29;103392.31;;;5.07;71.61
76627;BME280;65519;53.230;10.390;2023-02-04T09:55:55;103392.00;;;5.18;71.63
76627;BME280;65519;53.230;10.390;2023-02-04T09:58:22;103404.34;;;5.29;71.26
76627;BME280;65519;53.230;10.390;2023-02-04T10:00:55;103397.94;;;5.30;71.04
76627;BME280;65519;53.230;10.390;2023-02-04T10:03:22;103400.63;;;5.30;71.41
76627;BME280;65519;53.230;10.390;2023-02-04T10:05:48;103408.38;;;5.25;70.98
76627;BME280;65519;53.230;10.390;2023-02-04T10:08:16;103413.47;;;5.28;70.52
76627;BME280;65519;53.230;10.390;2023-02-04T10:10:44;103410.91;;;5.42;68.76
76627;BME280;65519;53.230;10.390;2023-02-04T10:13:16;103402.31;;;5.47;67.37
76627;BME280;65519;53.230;10.390;2023-02-04T10:15:42;103408.22;;;5.59;67.24
76627;BME280;65519;53.230;10.390;2023-02-04T10:18:08;103403.31;;;5.78;67.00
76627;BME280;65519;53.230;10.390;2023-02-04T10:20:35;103412.25;;;5.95;66.98
76627;BME280;65519;53.230;10.390;2023-02-04T10:23:01;103425.00;;;5.95;66.08
76627;BME280;65519;53.230;10.390;2023-02-04T10:25:27;103411.75;;;6.00;67.05
76627;BME280;65519;53.230;10.390;2023-02-04T10:27:57;103412.47;;;5.94;65.49
76627;BME280;65519;53.230;10.390;2023-02-04T10:30:36;103417.53;;;6.05;65.50
76627;BME280;65519;53.230;10.390;2023-02-04T10:33:13;103416.31;;;6.07;65.87
76627;BME280;65519;53.230;10.390;2023-02-04T10:35:48;103418.53;;;6.04;64.24
76627;BME280;65519;53.230;10.390;2023-02-04T10:38:14;103425.81;;;5.95;63.84
76627;BME280;65519;53.230;10.390;2023-02-04T10:40:39;103422.25;;;6.03;63.93
76627;BME280;65519;53.230;10.390;2023-02-04T10:43:09;103423.09;;;5.95;64.33
76627;BME280;65519;53.230;10.390;2023-02-04T10:45:34;103421.94;;;5.57;64.70
76627;BME280;65519;53.230;10.390;2023-02-04T10:48:00;103421.59;;;5.36;65.53
76627;BME280;65519;53.230;10.390;2023-02-04T10:50:27;103429.34;;;5.31;65.13
76627;BME280;65519;53.230;10.390;2023-02-04T10:52:56;103425.28;;;5.27;65.31
76627;BME280;65519;53.230;10.390;2023-02-04T10:55:44;103427.47;;;5.15;65.37
76627;BME280;65519;53.230;10.390;2023-02-04T10:58:14;103428.66;;;5.21;66.00
76627;BME280;65519;53.230;10.390;2023-02-04T11:00:41;103426.31;;;5.26;66.14
76627;BME280;65519;53.230;10.390;2023-02-04T11:03:21;103433.09;;;5.46;66.36
76627;BME280;65519;53.230;10.390;2023-02-04T11:05:47;103434.25;;;5.43;66.68
76627;BME280;65519;53.230;10.390;2023-02-04T11:08:24;103445.75;;;5.37;65.05
76627;BME280;65519;53.230;10.390;2023-02-04T11:10:59;103455.38;;;5.32;64.98
76627;BME280;65519;53.230;10.390;2023-02-04T11:18:43;103441.56;;;5.51;64.33
76627;BME280;65519;53.230;10.390;2023-02-04T11:23:47;103436.78;;;5.53;63.03
76627;BME280;65519;53.230;10.390;2023-02-04T11:26:14;103439.84;;;5.50;62.91
76627;BME280;65519;53.230;10.390;2023-02-04T11:29:09;103440.84;;;5.41;63.65
76627;BME280;65519;53.230;10.390;2023-02-04T11:39:57;103445.38;;;5.16;63.33
76627;BME280;65519;53.230;10.390;2023-02-04T11:42:37;103445.22;;;5.18;63.77
76627;BME280;65519;53.230;10.390;2023-02-04T11:45:14;103447.94;;;5.26;62.52
76627;BME280;65519;53.230;10.390;2023-02-04T11:47:41;103449.63;;;5.27;62.54
76627;BME280;65519;53.230;10.390;2023-02-04T11:50:15;103450.66;;;5.34;63.65
76627;BME280;65519;53.230;10.390;2023-02-04T11:52:42;103456.38;;;5.31;63.27
76627;BME280;65519;53.230;10.390;2023-02-04T11:55:10;103447.25;;;5.32;62.67
76627;BME280;65519;53.230;10.390;2023-02-04T11:57:40;103455.72;;;5.29;62.33
76627;BME280;65519;53.230;10.390;2023-02-04T12:00:12;103455.03;;;5.19;62.69
76627;BME280;65519;53.230;10.390;2023-02-04T12:02:47;103459.41;;;5.20;63.41
76627;BME280;65519;53.230;10.390;2023-02-04T12:05:16;103456.38;;;5.14;65.34
76627;BME280;65519;53.230;10.390;2023-02-04T12:07:41;103462.00;;;5.45;62.74
76627;BME280;65519;53.230;10.390;2023-02-04T12:12:54;103461.59;;;6.46;60.23
76627;BME280;65519;53.230;10.390;2023-02-04T12:15:30;103461.28;;;6.80;57.56
76627;BME280;65519;53.230;10.390;2023-02-04T12:18:06;103450.69;;;6.93;56.90
76627;BME280;65519;53.230;10.390;2023-02-04T12:20:32;103463.00;;;7.04;56.50
76627;BME280;65519;53.230;10.390;2023-02-04T12:22:57;103460.31;;;7.35;56.55
76627;BME280;65519;53.230;10.390;2023-02-04T12:25:23;103461.03;;;7.51;55.18
76627;BME280;65519;53.230;10.390;2023-02-04T12:27:49;103460.09;;;7.59;52.76
76627;BME280;65519;53.230;10.390;2023-02-04T12:30:15;103455.16;;;7.85;52.11
76627;BME280;65519;53.230;10.390;2023-02-04T12:32:43;103459.50;;;8.09;54.24
76627;BME280;65519;53.230;10.390;2023-02-04T12:35:08;103457.19;;;8.21;52.98
76627;BME280;65519;53.230;10.390;2023-02-04T12:37:33;103461.00;;;8.12;51.70
76627;BME280;65519;53.230;10.390;2023-02-04T12:39:59;103468.56;;;8.01;51.20
76627;BME280;65519;53.230;10.390;2023-02-04T12:42:24;103481.72;;;8.27;51.47
76627;BME280;65519;53.230;10.390;2023-02-04T12:44:49;103473.09;;;8.09;49.78
76627;BME280;65519;53.230;10.390;2023-02-04T12:47:15;103477.91;;;7.84;51.08
76627;BME280;65519;53.230;10.390;2023-02-04T12:49:40;103474.69;;;7.81;51.62
76627;BME280;65519;53.230;10.390;2023-02-04T12:52:06;103475.09;;;7.92;53.66
76627;BME280;65519;53.230;10.390;2023-02-04T12:54:31;103469.97;;;7.97;50.58
76627;BME280;65519;53.230;10.390;2023-02-04T12:56:56;103470.91;;;8.04;50.26
76627;BME280;65519;53.230;10.390;2023-02-04T12:59:23;103471.41;;;8.08;52.48
76627;BME280;65519;53.230;10.390;2023-02-04T13:01:49;103461.75;;;8.05;51.06
76627;BME280;65519;53.230;10.390;2023-02-04T13:04:15;103474.56;;;7.97;52.41
76627;BME280;65519;53.230;10.390;2023-02-04T13:06:40;103471.34;;;7.93;53.58
76627;BME280;65519;53.230;10.390;2023-02-04T13:09:06;103470.06;;;8.04;52.62